Etusivu
METAR-TAF:

METAR-TAF

Lentoasemat :

Bahrain, Bahrain

Bahrainin kansainvälinen lentoasema

Leveyspiiri: 26-16N, Pituuspiiri: 050-39E, korkeus merenpinnasta: 2 m

Tämänhetkinen sää

Tämä raportti tehtiin 30 minuuttia sitten, kello 11.00 UTC
Tuuli 20 kn luoteesta
Lämpötila 20°C
Kosteus 60%
Ilmanpaine 1021 hPa
Näkyvyys 10 km tai enemmän
ei pilviä alle 1500 m:ssä eikä cumulonimbus-pilviä

METAR: OBBI 111100Z 31020KT CAVOK 20/12 Q1021 NOSIG

Aika: 14:30 (11:30 UTC)

Sääennuste

Tämä raportti tehtiin 6 tuntia ja 30 minuuttia sitten, kello 05.00 UTC
Ennuste voimassa 11. päivästä klo 06 UTC - 12. päivään klo 12 UTC
Tuuli 16 kn luoteesta
Näkyvyys 10 km tai enemmän
ei pilviä alle 1500 m:ssä eikä cumulonimbus-pilviä

TAF: OBBI 110500Z 1106/1212 32016KT CAVOK

Säähavainnot ja -ennusteet yli 4000 lentoasemalta (METAR- ja TAF-raportit).

Käytössä olevat sääasemat on merkitty karttaan keltaisilla ja punaisilla pisteillä.

Aseta hiiri pisteen päälle nähdäksesi sääaseman nimen.

Klikkaa sitten nähdäksesi säähavainnot ja -ennusteet.

Kartan vaihtaminen: klikkaa mustalla rastilla varustettuja vihreitä pisteitä, niin voit zoomata sisään; viivalla varustettua vihreää pistettä, niin voit zoomata ulos tai vihreitä nuolia, niin pääset viereisille kartoille.


METAR-TAF: